Orbital elements of METEOR 2-5 DEB
| Launched | 30 October 1979 |
| Flight ended | – |
| Launch site | Plesetsk Missile and Space Complex, Russia |
| Owner | Commonwealth of Independent States (former USSR) |
| NORAD ID | 45511 |
| Date fetched |
Epoch osculation |
Inc. [°] |
Ecc. | RA asc node [hr] |
Arg Peri. [°] |
Mean anom [°] |
Mean motion [rev/day] |
Abs. mag |
| Date fetched |
Epoch osculation |
Inc. [°] |
Ecc. | RA asc node [hr] |
Arg Peri. [°] |
Mean anom [°] |
Mean motion [rev/day] |
Abs. mag |
| 2026 May 05 17:57 | 2026 May 03 01:40:29 | 81.2195 | 0.00092 | 16.8699 | 257.4466 | 102.5687 | 14.23387 | – |
| 2026 May 04 17:57 | 2026 Apr 28 15:23:18 | 81.2164 | 0.00087 | 17.1644 | 272.3801 | 102.5687 | 14.23387 | – |
| 2026 May 03 17:57 | 2026 Apr 28 15:23:18 | 81.2164 | 0.00087 | 17.1644 | 272.3801 | 102.5687 | 14.23387 | – |
| 2026 May 02 17:57 | 2026 Apr 28 15:23:18 | 81.2164 | 0.00087 | 17.1644 | 272.3801 | 102.5687 | 14.23387 | – |
| 2026 May 01 17:56 | 2026 Apr 28 15:23:18 | 81.2164 | 0.00087 | 17.1644 | 272.3801 | 102.5687 | 14.23387 | – |
| 2026 Apr 30 17:56 | 2026 Apr 28 15:23:18 | 81.2164 | 0.00087 | 17.1644 | 272.3801 | 102.5687 | 14.23387 | – |
| 2026 Apr 29 17:57 | 2026 Apr 22 15:58:57 | 81.2179 | 0.00088 | 17.5620 | 292.3809 | 102.5687 | 14.23387 | – |
| 2026 Apr 28 17:56 | 2026 Apr 22 15:58:57 | 81.2179 | 0.00088 | 17.5620 | 292.3809 | 102.5687 | 14.23387 | – |
| 2026 Apr 27 17:58 | 2026 Apr 22 15:58:57 | 81.2179 | 0.00088 | 17.5620 | 292.3809 | 102.5687 | 14.23387 | – |
| 2026 Apr 26 17:58 | 2026 Apr 22 15:58:57 | 81.2179 | 0.00088 | 17.5620 | 292.3809 | 102.5687 | 14.23387 | – |
| 2026 Apr 25 17:58 | 2026 Apr 22 15:58:57 | 81.2179 | 0.00088 | 17.5620 | 292.3809 | 102.5687 | 14.23387 | – |
| 2026 Apr 24 17:59 | 2026 Apr 22 15:58:57 | 81.2179 | 0.00088 | 17.5620 | 292.3809 | 102.5687 | 14.23387 | – |
| 2026 Apr 23 17:57 | 2026 Apr 19 03:37:29 | 81.2176 | 0.00089 | 17.7958 | 303.2150 | 102.5687 | 14.23387 | – |
| 2026 Apr 22 17:57 | 2026 Apr 19 03:37:29 | 81.2176 | 0.00089 | 17.7958 | 303.2150 | 102.5687 | 14.23387 | – |
| 2026 Apr 21 17:57 | 2026 Apr 19 03:37:29 | 81.2176 | 0.00089 | 17.7958 | 303.2150 | 102.5687 | 14.23387 | – |
| 2026 Apr 20 17:57 | 2026 Apr 19 03:37:29 | 81.2176 | 0.00089 | 17.7958 | 303.2150 | 102.5687 | 14.23387 | – |
| 2026 Apr 19 17:58 | 2026 Apr 19 03:37:29 | 81.2176 | 0.00089 | 17.7958 | 303.2150 | 102.5687 | 14.23387 | – |
| 2026 Apr 18 17:56 | 2026 Apr 13 04:12:51 | 81.2134 | 0.00088 | 18.1934 | 326.9657 | 102.5687 | 14.23387 | – |
| 2026 Apr 16 17:57 | 2026 Apr 13 04:12:51 | 81.2134 | 0.00088 | 18.1934 | 326.9657 | 102.5687 | 14.23387 | – |
| 2026 Apr 14 17:57 | 2026 Apr 13 04:12:51 | 81.2134 | 0.00088 | 18.1934 | 326.9657 | 102.5687 | 14.23387 | – |
| 2026 Apr 13 17:57 | 2026 Apr 13 04:12:51 | 81.2134 | 0.00088 | 18.1934 | 326.9657 | 102.5687 | 14.23387 | – |
| 2026 Apr 12 17:57 | 2026 Apr 01 18:52:52 | 81.2153 | 0.00097 | 18.9511 | 356.5768 | 102.5687 | 14.23387 | – |
| 2026 Apr 11 17:57 | 2026 Apr 01 18:52:52 | 81.2153 | 0.00097 | 18.9511 | 356.5768 | 102.5687 | 14.23387 | – |
| 2026 Apr 10 17:58 | 2026 Apr 01 18:52:52 | 81.2153 | 0.00097 | 18.9511 | 356.5768 | 102.5687 | 14.23387 | – |
| 2026 Apr 09 18:01 | 2026 Apr 01 18:52:52 | 81.2153 | 0.00097 | 18.9511 | 356.5768 | 102.5687 | 14.23387 | – |
| 2026 Apr 08 17:57 | 2026 Apr 01 18:52:52 | 81.2153 | 0.00097 | 18.9511 | 356.5768 | 102.5687 | 14.23387 | – |